sensor_id;sensor_type;location;lat;lon;timestamp;P1;durP1;ratioP1;P2;durP2;ratioP2
70997;SDS011;58663;52.040;4.634;2023-09-08T00:01:03;18.20;;;11.43;;
70997;SDS011;58663;52.040;4.634;2023-09-08T00:03:28;13.60;;;10.90;;
70997;SDS011;58663;52.040;4.634;2023-09-08T00:05:53;14.45;;;10.68;;
70997;SDS011;58663;52.040;4.634;2023-09-08T00:08:19;13.88;;;10.98;;
70997;SDS011;58663;52.040;4.634;2023-09-08T00:10:44;15.98;;;12.02;;
70997;SDS011;58663;52.040;4.634;2023-09-08T00:13:09;17.23;;;11.75;;
70997;SDS011;58663;52.040;4.634;2023-09-08T00:15:36;13.52;;;10.98;;
70997;SDS011;58663;52.040;4.634;2023-09-08T00:18:02;13.40;;;10.55;;
70997;SDS011;58663;52.040;4.634;2023-09-08T00:20:27;14.68;;;11.30;;
70997;SDS011;58663;52.040;4.634;2023-09-08T00:22:53;15.57;;;11.02;;
70997;SDS011;58663;52.040;4.634;2023-09-08T00:25:18;15.65;;;11.18;;
70997;SDS011;58663;52.040;4.634;2023-09-08T00:27:43;15.45;;;11.18;;
70997;SDS011;58663;52.040;4.634;2023-09-08T00:30:09;14.05;;;10.90;;
70997;SDS011;58663;52.040;4.634;2023-09-08T00:32:35;17.02;;;10.73;;
70997;SDS011;58663;52.040;4.634;2023-09-08T00:35:01;12.57;;;10.10;;
70997;SDS011;58663;52.040;4.634;2023-09-08T00:37:26;14.88;;;11.05;;
70997;SDS011;58663;52.040;4.634;2023-09-08T00:39:51;19.67;;;11.27;;
70997;SDS011;58663;52.040;4.634;2023-09-08T00:42:17;16.27;;;11.13;;
70997;SDS011;58663;52.040;4.634;2023-09-08T00:44:42;12.73;;;10.45;;
70997;SDS011;58663;52.040;4.634;2023-09-08T00:47:07;16.25;;;10.52;;
70997;SDS011;58663;52.040;4.634;2023-09-08T00:49:33;13.85;;;10.77;;
70997;SDS011;58663;52.040;4.634;2023-09-08T00:51:58;17.33;;;11.93;;
70997;SDS011;58663;52.040;4.634;2023-09-08T00:54:23;14.60;;;11.43;;
70997;SDS011;58663;52.040;4.634;2023-09-08T00:56:49;15.52;;;11.52;;
70997;SDS011;58663;52.040;4.634;2023-09-08T00:59:22;18.55;;;11.60;;
70997;SDS011;58663;52.040;4.634;2023-09-08T01:01:47;14.80;;;11.95;;
70997;SDS011;58663;52.040;4.634;2023-09-08T01:04:12;17.55;;;12.02;;
70997;SDS011;58663;52.040;4.634;2023-09-08T01:06:38;16.38;;;12.65;;
70997;SDS011;58663;52.040;4.634;2023-09-08T01:09:03;17.65;;;12.18;;
70997;SDS011;58663;52.040;4.634;2023-09-08T01:11:29;18.52;;;12.32;;
70997;SDS011;58663;52.040;4.634;2023-09-08T01:14:04;15.32;;;11.90;;
70997;SDS011;58663;52.040;4.634;2023-09-08T01:16:29;15.88;;;12.45;;
70997;SDS011;58663;52.040;4.634;2023-09-08T01:18:55;15.07;;;12.10;;
70997;SDS011;58663;52.040;4.634;2023-09-08T01:26:53;16.70;;;12.77;;
70997;SDS011;58663;52.040;4.634;2023-09-08T01:29:18;18.88;;;12.77;;
70997;SDS011;58663;52.040;4.634;2023-09-08T01:31:44;14.73;;;12.75;;
70997;SDS011;58663;52.040;4.634;2023-09-08T01:34:10;20.30;;;13.15;;
70997;SDS011;58663;52.040;4.634;2023-09-08T01:36:36;18.38;;;13.48;;
70997;SDS011;58663;52.040;4.634;2023-09-08T01:39:02;17.83;;;12.90;;
70997;SDS011;58663;52.040;4.634;2023-09-08T01:41:27;18.55;;;12.35;;
70997;SDS011;58663;52.040;4.634;2023-09-08T01:43:53;15.27;;;11.85;;
70997;SDS011;58663;52.040;4.634;2023-09-08T01:46:19;18.50;;;12.70;;
70997;SDS011;58663;52.040;4.634;2023-09-08T01:48:45;14.15;;;12.15;;
70997;SDS011;58663;52.040;4.634;2023-09-08T01:51:10;14.90;;;11.52;;
70997;SDS011;58663;52.040;4.634;2023-09-08T01:53:35;19.05;;;12.73;;
70997;SDS011;58663;52.040;4.634;2023-09-08T01:56:01;19.95;;;14.32;;
70997;SDS011;58663;52.040;4.634;2023-09-08T01:58:26;17.30;;;13.07;;
70997;SDS011;58663;52.040;4.634;2023-09-08T02:00:51;17.35;;;13.68;;
70997;SDS011;58663;52.040;4.634;2023-09-08T02:03:17;17.55;;;13.13;;
70997;SDS011;58663;52.040;4.634;2023-09-08T02:05:42;18.10;;;12.75;;
70997;SDS011;58663;52.040;4.634;2023-09-08T02:08:08;18.13;;;13.85;;
70997;SDS011;58663;52.040;4.634;2023-09-08T02:10:33;19.80;;;13.57;;
70997;SDS011;58663;52.040;4.634;2023-09-08T02:12:58;16.98;;;13.30;;
70997;SDS011;58663;52.040;4.634;2023-09-08T02:15:24;18.08;;;12.98;;
70997;SDS011;58663;52.040;4.634;2023-09-08T02:17:52;17.08;;;13.25;;
70997;SDS011;58663;52.040;4.634;2023-09-08T02:20:18;17.05;;;14.05;;
70997;SDS011;58663;52.040;4.634;2023-09-08T02:22:44;17.15;;;13.18;;
70997;SDS011;58663;52.040;4.634;2023-09-08T02:25:09;18.75;;;14.35;;
70997;SDS011;58663;52.040;4.634;2023-09-08T02:27:34;18.80;;;14.52;;
70997;SDS011;58663;52.040;4.634;2023-09-08T02:30:01;16.17;;;12.45;;
70997;SDS011;58663;52.040;4.634;2023-09-08T02:32:26;17.45;;;13.73;;
70997;SDS011;58663;52.040;4.634;2023-09-08T02:34:51;15.88;;;12.90;;
70997;SDS011;58663;52.040;4.634;2023-09-08T02:37:17;18.75;;;14.00;;
70997;SDS011;58663;52.040;4.634;2023-09-08T02:39:44;18.45;;;13.35;;
70997;SDS011;58663;52.040;4.634;2023-09-08T02:42:09;18.38;;;14.07;;
70997;SDS011;58663;52.040;4.634;2023-09-08T02:44:35;17.13;;;12.93;;
70997;SDS011;58663;52.040;4.634;2023-09-08T02:47:00;21.38;;;13.32;;
70997;SDS011;58663;52.040;4.634;2023-09-08T02:49:25;16.45;;;13.35;;
70997;SDS011;58663;52.040;4.634;2023-09-08T02:51:51;20.45;;;14.60;;
70997;SDS011;58663;52.040;4.634;2023-09-08T02:54:16;16.13;;;13.20;;
70997;SDS011;58663;52.040;4.634;2023-09-08T02:56:41;16.98;;;13.73;;
70997;SDS011;58663;52.040;4.634;2023-09-08T02:59:07;18.58;;;13.65;;
70997;SDS011;58663;52.040;4.634;2023-09-08T03:01:32;21.13;;;13.98;;
70997;SDS011;58663;52.040;4.634;2023-09-08T03:03:58;21.23;;;14.50;;
70997;SDS011;58663;52.040;4.634;2023-09-08T03:06:23;17.75;;;13.57;;
70997;SDS011;58663;52.040;4.634;2023-09-08T03:08:48;22.85;;;13.82;;
70997;SDS011;58663;52.040;4.634;2023-09-08T03:11:14;18.75;;;13.18;;
70997;SDS011;58663;52.040;4.634;2023-09-08T03:13:39;19.85;;;14.75;;
70997;SDS011;58663;52.040;4.634;2023-09-08T03:16:05;22.33;;;14.10;;
70997;SDS011;58663;52.040;4.634;2023-09-08T03:18:34;17.60;;;13.45;;
70997;SDS011;58663;52.040;4.634;2023-09-08T03:21:03;17.60;;;13.98;;
70997;SDS011;58663;52.040;4.634;2023-09-08T03:23:35;18.00;;;13.63;;
70997;SDS011;58663;52.040;4.634;2023-09-08T03:26:01;24.25;;;14.73;;
70997;SDS011;58663;52.040;4.634;2023-09-08T03:28:27;17.85;;;13.05;;
70997;SDS011;58663;52.040;4.634;2023-09-08T03:30:52;19.00;;;13.10;;
70997;SDS011;58663;52.040;4.634;2023-09-08T03:33:17;20.00;;;13.85;;
70997;SDS011;58663;52.040;4.634;2023-09-08T03:35:43;16.88;;;12.57;;
70997;SDS011;58663;52.040;4.634;2023-09-08T03:38:09;17.85;;;14.35;;
70997;SDS011;58663;52.040;4.634;2023-09-08T03:40:34;18.98;;;13.15;;
70997;SDS011;58663;52.040;4.634;2023-09-08T03:42:59;16.50;;;12.35;;
70997;SDS011;58663;52.040;4.634;2023-09-08T03:45:25;17.77;;;12.82;;
70997;SDS011;58663;52.040;4.634;2023-09-08T03:47:50;18.50;;;13.32;;
70997;SDS011;58663;52.040;4.634;2023-09-08T03:50:15;19.67;;;13.88;;
70997;SDS011;58663;52.040;4.634;2023-09-08T03:52:41;17.33;;;12.73;;
70997;SDS011;58663;52.040;4.634;2023-09-08T03:55:06;17.48;;;12.68;;
70997;SDS011;58663;52.040;4.634;2023-09-08T03:57:32;16.52;;;12.65;;
70997;SDS011;58663;52.040;4.634;2023-09-08T03:59:57;19.88;;;13.25;;
70997;SDS011;58663;52.040;4.634;2023-09-08T04:02:22;19.10;;;12.93;;
70997;SDS011;58663;52.040;4.634;2023-09-08T04:04:48;15.98;;;12.63;;
70997;SDS011;58663;52.040;4.634;2023-09-08T04:07:13;18.42;;;13.43;;
70997;SDS011;58663;52.040;4.634;2023-09-08T04:09:38;18.05;;;13.00;;
70997;SDS011;58663;52.040;4.634;2023-09-08T04:12:04;17.05;;;13.60;;
70997;SDS011;58663;52.040;4.634;2023-09-08T04:14:30;19.20;;;13.48;;
70997;SDS011;58663;52.040;4.634;2023-09-08T04:16:58;17.10;;;12.73;;
70997;SDS011;58663;52.040;4.634;2023-09-08T04:19:23;20.38;;;13.60;;
70997;SDS011;58663;52.040;4.634;2023-09-08T04:21:48;17.52;;;12.95;;
70997;SDS011;58663;52.040;4.634;2023-09-08T04:24:14;16.45;;;13.05;;
70997;SDS011;58663;52.040;4.634;2023-09-08T04:26:39;18.70;;;12.52;;
70997;SDS011;58663;52.040;4.634;2023-09-08T04:29:04;17.38;;;13.10;;
70997;SDS011;58663;52.040;4.634;2023-09-08T04:31:30;16.77;;;13.27;;
70997;SDS011;58663;52.040;4.634;2023-09-08T04:33:55;21.33;;;13.77;;
70997;SDS011;58663;52.040;4.634;2023-09-08T04:36:21;16.40;;;12.43;;
70997;SDS011;58663;52.040;4.634;2023-09-08T04:38:46;18.92;;;13.93;;
70997;SDS011;58663;52.040;4.634;2023-09-08T04:41:11;21.08;;;13.38;;
70997;SDS011;58663;52.040;4.634;2023-09-08T04:43:37;17.08;;;12.70;;
70997;SDS011;58663;52.040;4.634;2023-09-08T04:46:02;21.58;;;13.75;;
70997;SDS011;58663;52.040;4.634;2023-09-08T04:48:28;18.65;;;13.13;;
70997;SDS011;58663;52.040;4.634;2023-09-08T04:50:54;21.45;;;12.95;;
70997;SDS011;58663;52.040;4.634;2023-09-08T04:53:19;15.60;;;12.82;;
70997;SDS011;58663;52.040;4.634;2023-09-08T04:55:45;17.60;;;12.88;;
70997;SDS011;58663;52.040;4.634;2023-09-08T04:58:10;17.73;;;12.57;;
70997;SDS011;58663;52.040;4.634;2023-09-08T05:00:37;16.95;;;13.18;;
70997;SDS011;58663;52.040;4.634;2023-09-08T05:03:03;16.38;;;13.23;;
70997;SDS011;58663;52.040;4.634;2023-09-08T05:05:29;17.90;;;12.82;;
70997;SDS011;58663;52.040;4.634;2023-09-08T05:07:54;16.92;;;13.10;;
70997;SDS011;58663;52.040;4.634;2023-09-08T05:10:21;19.95;;;13.73;;
70997;SDS011;58663;52.040;4.634;2023-09-08T05:12:47;18.92;;;14.13;;
70997;SDS011;58663;52.040;4.634;2023-09-08T05:15:12;16.27;;;12.90;;
70997;SDS011;58663;52.040;4.634;2023-09-08T05:17:40;18.90;;;14.18;;
70997;SDS011;58663;52.040;4.634;2023-09-08T05:20:06;17.98;;;14.07;;
70997;SDS011;58663;52.040;4.634;2023-09-08T05:22:32;21.27;;;14.23;;
70997;SDS011;58663;52.040;4.634;2023-09-08T05:24:58;18.42;;;14.15;;
70997;SDS011;58663;52.040;4.634;2023-09-08T05:27:23;17.92;;;13.73;;
70997;SDS011;58663;52.040;4.634;2023-09-08T05:29:48;24.33;;;14.80;;
70997;SDS011;58663;52.040;4.634;2023-09-08T05:32:14;18.98;;;13.27;;
70997;SDS011;58663;52.040;4.634;2023-09-08T05:34:39;18.17;;;13.68;;
70997;SDS011;58663;52.040;4.634;2023-09-08T05:37:04;18.88;;;13.90;;
70997;SDS011;58663;52.040;4.634;2023-09-08T05:39:30;17.50;;;12.30;;
70997;SDS011;58663;52.040;4.634;2023-09-08T05:41:56;22.00;;;13.85;;
70997;SDS011;58663;52.040;4.634;2023-09-08T05:44:21;19.38;;;13.20;;
70997;SDS011;58663;52.040;4.634;2023-09-08T05:46:47;19.70;;;13.70;;
70997;SDS011;58663;52.040;4.634;2023-09-08T05:49:12;19.40;;;14.07;;
70997;SDS011;58663;52.040;4.634;2023-09-08T05:51:39;19.52;;;13.88;;
70997;SDS011;58663;52.040;4.634;2023-09-08T05:54:04;20.73;;;13.57;;
70997;SDS011;58663;52.040;4.634;2023-09-08T05:56:30;19.20;;;14.48;;
70997;SDS011;58663;52.040;4.634;2023-09-08T05:58:56;19.08;;;14.15;;
70997;SDS011;58663;52.040;4.634;2023-09-08T06:01:22;18.92;;;14.15;;
70997;SDS011;58663;52.040;4.634;2023-09-08T06:03:47;21.52;;;14.30;;
70997;SDS011;58663;52.040;4.634;2023-09-08T06:06:13;20.45;;;13.93;;
70997;SDS011;58663;52.040;4.634;2023-09-08T06:08:38;18.80;;;14.05;;
70997;SDS011;58663;52.040;4.634;2023-09-08T06:11:03;20.73;;;14.45;;
70997;SDS011;58663;52.040;4.634;2023-09-08T06:13:29;17.33;;;13.82;;
70997;SDS011;58663;52.040;4.634;2023-09-08T06:15:54;21.42;;;14.25;;
70997;SDS011;58663;52.040;4.634;2023-09-08T06:18:20;17.25;;;13.25;;
70997;SDS011;58663;52.040;4.634;2023-09-08T06:20:46;20.35;;;13.93;;
70997;SDS011;58663;52.040;4.634;2023-09-08T06:23:12;20.05;;;14.07;;
70997;SDS011;58663;52.040;4.634;2023-09-08T06:25:37;18.80;;;13.00;;
70997;SDS011;58663;52.040;4.634;2023-09-08T06:28:03;22.85;;;13.60;;
70997;SDS011;58663;52.040;4.634;2023-09-08T06:30:28;19.42;;;14.02;;
70997;SDS011;58663;52.040;4.634;2023-09-08T06:32:53;18.02;;;14.02;;
70997;SDS011;58663;52.040;4.634;2023-09-08T06:35:19;18.80;;;13.85;;
70997;SDS011;58663;52.040;4.634;2023-09-08T06:37:44;22.88;;;14.43;;
70997;SDS011;58663;52.040;4.634;2023-09-08T06:40:10;19.77;;;14.73;;
70997;SDS011;58663;52.040;4.634;2023-09-08T06:42:35;18.13;;;13.75;;
70997;SDS011;58663;52.040;4.634;2023-09-08T06:45:00;19.35;;;14.43;;
70997;SDS011;58663;52.040;4.634;2023-09-08T06:47:26;20.23;;;15.02;;
70997;SDS011;58663;52.040;4.634;2023-09-08T06:49:51;19.38;;;14.25;;
70997;SDS011;58663;52.040;4.634;2023-09-08T06:52:17;21.30;;;13.88;;
70997;SDS011;58663;52.040;4.634;2023-09-08T06:54:42;25.83;;;15.02;;
70997;SDS011;58663;52.040;4.634;2023-09-08T06:57:10;22.38;;;15.43;;
70997;SDS011;58663;52.040;4.634;2023-09-08T06:59:35;20.42;;;14.25;;
70997;SDS011;58663;52.040;4.634;2023-09-08T07:02:01;20.05;;;14.52;;
70997;SDS011;58663;52.040;4.634;2023-09-08T07:04:26;20.42;;;15.38;;
70997;SDS011;58663;52.040;4.634;2023-09-08T07:06:51;20.67;;;14.57;;
70997;SDS011;58663;52.040;4.634;2023-09-08T07:09:19;20.38;;;13.93;;
70997;SDS011;58663;52.040;4.634;2023-09-08T07:11:45;22.85;;;14.73;;
70997;SDS011;58663;52.040;4.634;2023-09-08T07:14:10;18.58;;;14.40;;
70997;SDS011;58663;52.040;4.634;2023-09-08T07:16:35;22.13;;;15.05;;
70997;SDS011;58663;52.040;4.634;2023-09-08T07:19:01;23.05;;;15.00;;
70997;SDS011;58663;52.040;4.634;2023-09-08T07:21:26;20.95;;;15.48;;
70997;SDS011;58663;52.040;4.634;2023-09-08T07:23:52;21.33;;;14.95;;
70997;SDS011;58663;52.040;4.634;2023-09-08T07:26:18;18.33;;;14.73;;
70997;SDS011;58663;52.040;4.634;2023-09-08T07:28:44;19.70;;;14.30;;
70997;SDS011;58663;52.040;4.634;2023-09-08T07:31:09;17.42;;;14.05;;
70997;SDS011;58663;52.040;4.634;2023-09-08T07:33:35;17.98;;;14.23;;
70997;SDS011;58663;52.040;4.634;2023-09-08T07:36:07;17.08;;;13.32;;
70997;SDS011;58663;52.040;4.634;2023-09-08T07:38:33;19.25;;;14.27;;
70997;SDS011;58663;52.040;4.634;2023-09-08T07:40:59;19.10;;;15.00;;
70997;SDS011;58663;52.040;4.634;2023-09-08T07:43:27;20.83;;;15.35;;
70997;SDS011;58663;52.040;4.634;2023-09-08T07:45:53;20.30;;;15.05;;
70997;SDS011;58663;52.040;4.634;2023-09-08T07:48:18;20.85;;;14.77;;
70997;SDS011;58663;52.040;4.634;2023-09-08T07:50:44;22.08;;;14.68;;
70997;SDS011;58663;52.040;4.634;2023-09-08T07:53:09;18.92;;;14.60;;
70997;SDS011;58663;52.040;4.634;2023-09-08T07:55:35;21.67;;;14.32;;
70997;SDS011;58663;52.040;4.634;2023-09-08T07:58:01;20.17;;;14.95;;
70997;SDS011;58663;52.040;4.634;2023-09-08T08:00:26;22.65;;;14.80;;
70997;SDS011;58663;52.040;4.634;2023-09-08T08:02:53;20.67;;;15.38;;
70997;SDS011;58663;52.040;4.634;2023-09-08T08:05:20;24.58;;;16.90;;
70997;SDS011;58663;52.040;4.634;2023-09-08T08:07:46;20.30;;;15.27;;
70997;SDS011;58663;52.040;4.634;2023-09-08T08:10:11;20.85;;;16.08;;
70997;SDS011;58663;52.040;4.634;2023-09-08T08:12:37;21.75;;;15.68;;
70997;SDS011;58663;52.040;4.634;2023-09-08T08:15:03;20.30;;;15.57;;
70997;SDS011;58663;52.040;4.634;2023-09-08T08:17:29;22.70;;;15.27;;
70997;SDS011;58663;52.040;4.634;2023-09-08T08:19:56;30.08;;;16.30;;
70997;SDS011;58663;52.040;4.634;2023-09-08T08:22:23;22.40;;;15.38;;
70997;SDS011;58663;52.040;4.634;2023-09-08T08:24:49;22.80;;;16.10;;
70997;SDS011;58663;52.040;4.634;2023-09-08T08:27:14;22.05;;;15.32;;
70997;SDS011;58663;52.040;4.634;2023-09-08T08:29:40;20.38;;;15.88;;
70997;SDS011;58663;52.040;4.634;2023-09-08T08:32:05;22.63;;;15.40;;
70997;SDS011;58663;52.040;4.634;2023-09-08T08:34:31;18.95;;;14.88;;
70997;SDS011;58663;52.040;4.634;2023-09-08T08:36:56;19.45;;;15.82;;
70997;SDS011;58663;52.040;4.634;2023-09-08T08:39:21;22.38;;;16.90;;
70997;SDS011;58663;52.040;4.634;2023-09-08T08:41:47;20.63;;;15.98;;
70997;SDS011;58663;52.040;4.634;2023-09-08T08:44:12;22.23;;;14.45;;
70997;SDS011;58663;52.040;4.634;2023-09-08T08:46:38;21.13;;;14.43;;
70997;SDS011;58663;52.040;4.634;2023-09-08T08:49:04;23.75;;;15.25;;
70997;SDS011;58663;52.040;4.634;2023-09-08T08:51:33;22.90;;;16.70;;
70997;SDS011;58663;52.040;4.634;2023-09-08T08:53:59;20.70;;;15.38;;
70997;SDS011;58663;52.040;4.634;2023-09-08T08:56:29;19.60;;;16.05;;
70997;SDS011;58663;52.040;4.634;2023-09-08T08:58:55;27.17;;;16.10;;
70997;SDS011;58663;52.040;4.634;2023-09-08T09:01:21;20.95;;;15.40;;
70997;SDS011;58663;52.040;4.634;2023-09-08T09:03:48;19.73;;;16.02;;
70997;SDS011;58663;52.040;4.634;2023-09-08T09:06:14;19.77;;;14.13;;
70997;SDS011;58663;52.040;4.634;2023-09-08T09:08:41;20.77;;;15.48;;
70997;SDS011;58663;52.040;4.634;2023-09-08T09:11:09;19.92;;;15.13;;
70997;SDS011;58663;52.040;4.634;2023-09-08T09:13:34;24.05;;;15.15;;
70997;SDS011;58663;52.040;4.634;2023-09-08T09:16:00;21.15;;;15.25;;
70997;SDS011;58663;52.040;4.634;2023-09-08T09:18:28;19.48;;;14.75;;
70997;SDS011;58663;52.040;4.634;2023-09-08T09:20:55;23.33;;;15.10;;
70997;SDS011;58663;52.040;4.634;2023-09-08T09:23:26;19.92;;;14.55;;
70997;SDS011;58663;52.040;4.634;2023-09-08T09:25:53;20.63;;;14.57;;
70997;SDS011;58663;52.040;4.634;2023-09-08T09:28:18;15.30;;;12.95;;
70997;SDS011;58663;52.040;4.634;2023-09-08T09:30:46;18.65;;;14.10;;
70997;SDS011;58663;52.040;4.634;2023-09-08T09:33:13;24.70;;;14.18;;
70997;SDS011;58663;52.040;4.634;2023-09-08T09:35:40;19.25;;;15.10;;
70997;SDS011;58663;52.040;4.634;2023-09-08T09:38:06;21.48;;;14.45;;
70997;SDS011;58663;52.040;4.634;2023-09-08T09:40:33;19.25;;;15.25;;
70997;SDS011;58663;52.040;4.634;2023-09-08T09:42:58;21.20;;;14.07;;
70997;SDS011;58663;52.040;4.634;2023-09-08T09:45:24;20.40;;;13.63;;
70997;SDS011;58663;52.040;4.634;2023-09-08T09:47:50;24.15;;;13.93;;
70997;SDS011;58663;52.040;4.634;2023-09-08T09:50:26;17.67;;;13.20;;
70997;SDS011;58663;52.040;4.634;2023-09-08T09:53:13;19.50;;;13.68;;
70997;SDS011;58663;52.040;4.634;2023-09-08T09:55:40;26.95;;;16.08;;
70997;SDS011;58663;52.040;4.634;2023-09-08T09:58:07;17.67;;;12.30;;
70997;SDS011;58663;52.040;4.634;2023-09-08T10:00:33;22.00;;;13.57;;
70997;SDS011;58663;52.040;4.634;2023-09-08T10:02:59;21.48;;;14.50;;
70997;SDS011;58663;52.040;4.634;2023-09-08T10:05:25;24.20;;;15.07;;
70997;SDS011;58663;52.040;4.634;2023-09-08T10:07:52;24.23;;;15.38;;
70997;SDS011;58663;52.040;4.634;2023-09-08T10:10:18;18.33;;;14.85;;
70997;SDS011;58663;52.040;4.634;2023-09-08T10:12:46;24.60;;;14.50;;
70997;SDS011;58663;52.040;4.634;2023-09-08T10:15:17;20.25;;;13.25;;
70997;SDS011;58663;52.040;4.634;2023-09-08T10:17:44;21.08;;;14.32;;
70997;SDS011;58663;52.040;4.634;2023-09-08T10:20:11;19.80;;;13.85;;
70997;SDS011;58663;52.040;4.634;2023-09-08T10:22:41;19.33;;;13.40;;
70997;SDS011;58663;52.040;4.634;2023-09-08T10:25:08;15.88;;;12.15;;
70997;SDS011;58663;52.040;4.634;2023-09-08T10:27:34;21.15;;;12.15;;
70997;SDS011;58663;52.040;4.634;2023-09-08T10:30:01;20.90;;;13.20;;
70997;SDS011;58663;52.040;4.634;2023-09-08T10:32:28;20.20;;;12.25;;
70997;SDS011;58663;52.040;4.634;2023-09-08T10:34:54;15.98;;;11.48;;
70997;SDS011;58663;52.040;4.634;2023-09-08T10:37:23;17.20;;;11.70;;
70997;SDS011;58663;52.040;4.634;2023-09-08T10:39:50;14.55;;;10.73;;
70997;SDS011;58663;52.040;4.634;2023-09-08T10:44:41;14.93;;;10.85;;
70997;SDS011;58663;52.040;4.634;2023-09-08T10:47:13;19.40;;;9.38;;
70997;SDS011;58663;52.040;4.634;2023-09-08T10:49:44;14.70;;;9.52;;
70997;SDS011;58663;52.040;4.634;2023-09-08T10:52:11;16.88;;;9.35;;
70997;SDS011;58663;52.040;4.634;2023-09-08T10:54:40;15.52;;;8.75;;
70997;SDS011;58663;52.040;4.634;2023-09-08T10:57:13;14.55;;;8.88;;
70997;SDS011;58663;52.040;4.634;2023-09-08T11:02:05;11.52;;;8.77;;
70997;SDS011;58663;52.040;4.634;2023-09-08T11:04:30;19.40;;;12.15;;
70997;SDS011;58663;52.040;4.634;2023-09-08T11:06:57;15.93;;;11.35;;
70997;SDS011;58663;52.040;4.634;2023-09-08T11:09:22;13.35;;;10.30;;
70997;SDS011;58663;52.040;4.634;2023-09-08T11:11:48;13.73;;;9.48;;
70997;SDS011;58663;52.040;4.634;2023-09-08T11:14:15;13.43;;;8.88;;
70997;SDS011;58663;52.040;4.634;2023-09-08T11:16:40;11.65;;;9.32;;
70997;SDS011;58663;52.040;4.634;2023-09-08T11:19:05;10.23;;;9.00;;
70997;SDS011;58663;52.040;4.634;2023-09-08T11:21:31;11.18;;;9.40;;
70997;SDS011;58663;52.040;4.634;2023-09-08T11:24:03;13.55;;;9.27;;
70997;SDS011;58663;52.040;4.634;2023-09-08T11:28:58;12.27;;;9.80;;
70997;SDS011;58663;52.040;4.634;2023-09-08T11:31:23;13.75;;;7.38;;
70997;SDS011;58663;52.040;4.634;2023-09-08T11:33:48;13.57;;;8.73;;
70997;SDS011;58663;52.040;4.634;2023-09-08T11:36:14;11.70;;;7.57;;
70997;SDS011;58663;52.040;4.634;2023-09-08T11:38:41;7.57;;;6.75;;
70997;SDS011;58663;52.040;4.634;2023-09-08T11:41:08;10.18;;;6.13;;
70997;SDS011;58663;52.040;4.634;2023-09-08T11:43:33;7.43;;;6.35;;
70997;SDS011;58663;52.040;4.634;2023-09-08T11:45:59;8.50;;;6.43;;
70997;SDS011;58663;52.040;4.634;2023-09-08T11:48:25;9.27;;;6.43;;
70997;SDS011;58663;52.040;4.634;2023-09-08T11:50:53;12.45;;;6.80;;
70997;SDS011;58663;52.040;4.634;2023-09-08T11:53:20;9.45;;;6.20;;
70997;SDS011;58663;52.040;4.634;2023-09-08T11:55:46;12.55;;;7.00;;
70997;SDS011;58663;52.040;4.634;2023-09-08T11:58:12;8.95;;;5.95;;
70997;SDS011;58663;52.040;4.634;2023-09-08T12:00:37;8.23;;;5.75;;
70997;SDS011;58663;52.040;4.634;2023-09-08T12:03:10;10.38;;;5.45;;
70997;SDS011;58663;52.040;4.634;2023-09-08T12:05:37;10.27;;;6.00;;
70997;SDS011;58663;52.040;4.634;2023-09-08T12:08:03;8.50;;;6.18;;
70997;SDS011;58663;52.040;4.634;2023-09-08T12:10:41;7.47;;;5.47;;
70997;SDS011;58663;52.040;4.634;2023-09-08T12:13:06;7.63;;;6.30;;
70997;SDS011;58663;52.040;4.634;2023-09-08T12:18:04;8.45;;;6.43;;
70997;SDS011;58663;52.040;4.634;2023-09-08T12:20:31;7.50;;;5.93;;
70997;SDS011;58663;52.040;4.634;2023-09-08T12:22:59;9.43;;;5.70;;
70997;SDS011;58663;52.040;4.634;2023-09-08T12:25:26;6.47;;;5.40;;
70997;SDS011;58663;52.040;4.634;2023-09-08T12:27:53;20.33;;;6.70;;
70997;SDS011;58663;52.040;4.634;2023-09-08T12:30:19;11.48;;;6.88;;
70997;SDS011;58663;52.040;4.634;2023-09-08T12:33:08;6.70;;;5.38;;
70997;SDS011;58663;52.040;4.634;2023-09-08T12:35:34;11.65;;;5.88;;
70997;SDS011;58663;52.040;4.634;2023-09-08T12:38:00;10.65;;;5.93;;
70997;SDS011;58663;52.040;4.634;2023-09-08T12:40:32;10.90;;;6.65;;
70997;SDS011;58663;52.040;4.634;2023-09-08T12:42:59;9.43;;;6.40;;
70997;SDS011;58663;52.040;4.634;2023-09-08T12:45:25;8.82;;;6.93;;
70997;SDS011;58663;52.040;4.634;2023-09-08T12:47:51;9.88;;;6.53;;
70997;SDS011;58663;52.040;4.634;2023-09-08T12:50:17;8.75;;;5.53;;
70997;SDS011;58663;52.040;4.634;2023-09-08T12:52:42;11.18;;;6.78;;
70997;SDS011;58663;52.040;4.634;2023-09-08T12:55:08;10.57;;;6.30;;
70997;SDS011;58663;52.040;4.634;2023-09-08T12:57:34;9.15;;;6.50;;
70997;SDS011;58663;52.040;4.634;2023-09-08T13:00:00;10.30;;;6.47;;
70997;SDS011;58663;52.040;4.634;2023-09-08T13:02:25;9.18;;;5.70;;
70997;SDS011;58663;52.040;4.634;2023-09-08T13:04:51;7.50;;;6.28;;
70997;SDS011;58663;52.040;4.634;2023-09-08T13:07:17;7.60;;;6.20;;
70997;SDS011;58663;52.040;4.634;2023-09-08T13:09:43;7.43;;;5.47;;
70997;SDS011;58663;52.040;4.634;2023-09-08T13:12:08;7.97;;;6.68;;
70997;SDS011;58663;52.040;4.634;2023-09-08T13:17:03;9.18;;;5.88;;
70997;SDS011;58663;52.040;4.634;2023-09-08T13:19:29;7.15;;;6.05;;
70997;SDS011;58663;52.040;4.634;2023-09-08T13:21:54;10.05;;;5.88;;
70997;SDS011;58663;52.040;4.634;2023-09-08T13:24:20;8.10;;;5.70;;
70997;SDS011;58663;52.040;4.634;2023-09-08T13:26:47;7.90;;;5.10;;
70997;SDS011;58663;52.040;4.634;2023-09-08T13:29:12;7.32;;;5.35;;
70997;SDS011;58663;52.040;4.634;2023-09-08T13:31:37;6.65;;;4.95;;
70997;SDS011;58663;52.040;4.634;2023-09-08T13:34:03;7.78;;;5.20;;
70997;SDS011;58663;52.040;4.634;2023-09-08T13:36:28;6.07;;;4.55;;
70997;SDS011;58663;52.040;4.634;2023-09-08T13:38:53;6.15;;;4.60;;
70997;SDS011;58663;52.040;4.634;2023-09-08T13:41:19;4.78;;;4.30;;
70997;SDS011;58663;52.040;4.634;2023-09-08T13:43:44;4.82;;;4.15;;
70997;SDS011;58663;52.040;4.634;2023-09-08T13:46:10;4.75;;;4.28;;
70997;SDS011;58663;52.040;4.634;2023-09-08T13:48:35;5.38;;;4.60;;
70997;SDS011;58663;52.040;4.634;2023-09-08T13:51:01;8.60;;;5.05;;
70997;SDS011;58663;52.040;4.634;2023-09-08T13:53:27;6.78;;;4.97;;
70997;SDS011;58663;52.040;4.634;2023-09-08T13:55:53;8.30;;;4.70;;
70997;SDS011;58663;52.040;4.634;2023-09-08T13:58:19;11.77;;;4.57;;
70997;SDS011;58663;52.040;4.634;2023-09-08T14:00:44;5.45;;;4.00;;
70997;SDS011;58663;52.040;4.634;2023-09-08T14:03:09;4.65;;;4.20;;
70997;SDS011;58663;52.040;4.634;2023-09-08T14:05:35;6.10;;;4.82;;
70997;SDS011;58663;52.040;4.634;2023-09-08T14:08:00;9.05;;;4.60;;
70997;SDS011;58663;52.040;4.634;2023-09-08T14:10:26;10.45;;;4.45;;
70997;SDS011;58663;52.040;4.634;2023-09-08T14:12:51;6.18;;;4.60;;
70997;SDS011;58663;52.040;4.634;2023-09-08T14:15:16;6.10;;;4.18;;
70997;SDS011;58663;52.040;4.634;2023-09-08T14:17:42;5.10;;;4.47;;
70997;SDS011;58663;52.040;4.634;2023-09-08T14:20:07;5.40;;;4.03;;
70997;SDS011;58663;52.040;4.634;2023-09-08T14:22:33;7.30;;;4.70;;
70997;SDS011;58663;52.040;4.634;2023-09-08T14:24:59;6.97;;;4.53;;
70997;SDS011;58663;52.040;4.634;2023-09-08T14:27:24;7.10;;;5.20;;
70997;SDS011;58663;52.040;4.634;2023-09-08T14:29:49;5.35;;;4.70;;
70997;SDS011;58663;52.040;4.634;2023-09-08T14:32:15;8.38;;;4.25;;
70997;SDS011;58663;52.040;4.634;2023-09-08T14:34:40;6.35;;;4.60;;
70997;SDS011;58663;52.040;4.634;2023-09-08T14:37:06;7.18;;;4.78;;